MSR262 HECA-HELX
Flight info
| Callsign | MSR262 |
|---|---|
| Flight time | 0h 48m |
| Altitude | 31000 |
| Route | CVO A727 LXR |
| Aircraft | B738/M-SDE2E3FGHIRWXY/LB1 |
Departure
| Time | 2026-04-29 11:12 |
|---|---|
| Airport | Cairo International Airport (HECA) |
Arrival
| Time | 2026-04-29 12:01 |
|---|---|
| Airport | Luxor International Airport (HELX) |
| Time | Latitude | Longitude | Altitude | Speed | Heading |
|---|---|---|---|---|---|
| 2026-04-29 10:43 | 30.10803 | 31.39849 | 373 ft | 0 kts | 79° |
| 2026-04-29 10:57 | 30.10801 | 31.39833 | 373 ft | 4 kts | 78° |
| 2026-04-29 10:57 | 30.10795 | 31.39802 | 373 ft | 4 kts | 86° |
| 2026-04-29 10:57 | 30.10798 | 31.39780 | 373 ft | 3 kts | 158° |
| 2026-04-29 10:58 | 30.10805 | 31.39777 | 373 ft | 0 kts | 166° |
| 2026-04-29 11:07 | 30.10801 | 31.39778 | 373 ft | 2 kts | 166° |
| 2026-04-29 11:07 | 30.10771 | 31.39787 | 373 ft | 6 kts | 166° |
| 2026-04-29 11:07 | 30.10715 | 31.39803 | 373 ft | 10 kts | 165° |
| 2026-04-29 11:08 | 30.10635 | 31.39828 | 373 ft | 13 kts | 165° |
| 2026-04-29 11:08 | 30.10544 | 31.39856 | 373 ft | 13 kts | 165° |
| 2026-04-29 11:08 | 30.10457 | 31.39879 | 373 ft | 13 kts | 176° |
| 2026-04-29 11:08 | 30.10386 | 31.39828 | 373 ft | 12 kts | 229° |
| 2026-04-29 11:09 | 30.10330 | 31.39754 | 373 ft | 12 kts | 229° |
| 2026-04-29 11:09 | 30.10275 | 31.39683 | 373 ft | 12 kts | 227° |
| 2026-04-29 11:09 | 30.10220 | 31.39613 | 373 ft | 11 kts | 228° |
| 2026-04-29 11:09 | 30.10154 | 31.39572 | 373 ft | 11 kts | 167° |
| 2026-04-29 11:10 | 30.10095 | 31.39626 | 373 ft | 11 kts | 139° |
| 2026-04-29 11:10 | 30.10038 | 31.39682 | 373 ft | 11 kts | 139° |
| 2026-04-29 11:10 | 30.10003 | 31.39754 | 373 ft | 10 kts | 99° |
| 2026-04-29 11:10 | 30.10001 | 31.39836 | 372 ft | 11 kts | 91° |
| 2026-04-29 11:11 | 30.10034 | 31.39914 | 369 ft | 12 kts | 48° |
| 2026-04-29 11:11 | 30.10197 | 31.40128 | 373 ft | 66 kts | 49° |
| 2026-04-29 11:11 | 30.10646 | 31.40724 | 372 ft | 129 kts | 49° |
| 2026-04-29 11:11 | 30.11356 | 31.41660 | 384 ft | 179 kts | 45° |
| 2026-04-29 11:12 | 30.12230 | 31.42817 | 818 ft | 193 kts | 45° |
| 2026-04-29 11:12 | 30.13129 | 31.43986 | 1529 ft | 200 kts | 46° |
| 2026-04-29 11:12 | 30.13848 | 31.45387 | 2208 ft | 210 kts | 79° |
| 2026-04-29 11:12 | 30.13645 | 31.47121 | 2481 ft | 234 kts | 121° |
| 2026-04-29 11:13 | 30.12429 | 31.48365 | 2902 ft | 244 kts | 161° |
| 2026-04-29 11:13 | 30.10711 | 31.48506 | 3231 ft | 259 kts | 199° |
| 2026-04-29 11:13 | 30.09230 | 31.47367 | 3890 ft | 258 kts | 237° |
| 2026-04-29 11:13 | 30.08323 | 31.45575 | 4655 ft | 262 kts | 242° |
| 2026-04-29 11:14 | 30.07294 | 31.43807 | 5385 ft | 268 kts | 228° |
| 2026-04-29 11:14 | 30.05709 | 31.42691 | 6200 ft | 274 kts | 195° |
| 2026-04-29 11:14 | 30.03797 | 31.42773 | 6918 ft | 281 kts | 162° |
| 2026-04-29 11:14 | 30.01983 | 31.43659 | 7606 ft | 286 kts | 161° |
| 2026-04-29 11:15 | 30.00047 | 31.44248 | 8305 ft | 289 kts | 171° |
| 2026-04-29 11:15 | 29.98065 | 31.44701 | 9072 ft | 292 kts | 170° |
| 2026-04-29 11:15 | 29.96084 | 31.45172 | 9747 ft | 298 kts | 170° |
| 2026-04-29 11:15 | 29.94016 | 31.45676 | 10368 ft | 305 kts | 169° |
| 2026-04-29 11:16 | 29.91892 | 31.46204 | 10527 ft | 328 kts | 169° |
| 2026-04-29 11:16 | 29.89587 | 31.46784 | 10708 ft | 349 kts | 169° |
| 2026-04-29 11:16 | 29.87164 | 31.47400 | 11103 ft | 361 kts | 169° |
| 2026-04-29 11:16 | 29.84687 | 31.48035 | 11688 ft | 367 kts | 169° |
| 2026-04-29 11:17 | 29.82182 | 31.48679 | 12306 ft | 371 kts | 169° |
| 2026-04-29 11:17 | 29.79647 | 31.49329 | 12919 ft | 376 kts | 169° |
| 2026-04-29 11:17 | 29.77073 | 31.49989 | 13539 ft | 380 kts | 169° |
| 2026-04-29 11:17 | 29.74474 | 31.50654 | 14095 ft | 386 kts | 170° |
| 2026-04-29 11:18 | 29.71838 | 31.51328 | 14649 ft | 389 kts | 170° |
| 2026-04-29 11:18 | 29.69181 | 31.52027 | 15205 ft | 394 kts | 168° |
| 2026-04-29 11:18 | 29.66549 | 31.52836 | 15749 ft | 398 kts | 167° |
| 2026-04-29 11:18 | 29.63864 | 31.53725 | 16293 ft | 403 kts | 166° |
| 2026-04-29 11:19 | 29.61161 | 31.54638 | 16829 ft | 407 kts | 166° |
| 2026-04-29 11:19 | 29.58428 | 31.55561 | 17338 ft | 411 kts | 167° |
| 2026-04-29 11:19 | 29.55665 | 31.56487 | 17836 ft | 416 kts | 167° |
| 2026-04-29 11:19 | 29.52864 | 31.57417 | 18350 ft | 420 kts | 167° |
| 2026-04-29 11:20 | 29.50040 | 31.58349 | 18783 ft | 424 kts | 167° |
| 2026-04-29 11:20 | 29.47192 | 31.59285 | 19254 ft | 427 kts | 168° |
| 2026-04-29 11:20 | 29.44320 | 31.60226 | 19710 ft | 431 kts | 168° |
| 2026-04-29 11:20 | 29.41424 | 31.61174 | 20167 ft | 434 kts | 168° |
| 2026-04-29 11:21 | 29.38502 | 31.62129 | 20603 ft | 438 kts | 168° |
| 2026-04-29 11:21 | 29.35561 | 31.63091 | 21037 ft | 441 kts | 169° |
| 2026-04-29 11:21 | 29.32597 | 31.64059 | 21445 ft | 445 kts | 169° |
| 2026-04-29 11:21 | 29.29638 | 31.65025 | 21848 ft | 449 kts | 169° |
| 2026-04-29 11:22 | 29.26624 | 31.66009 | 22262 ft | 452 kts | 169° |
| 2026-04-29 11:22 | 29.23587 | 31.66999 | 22656 ft | 456 kts | 169° |
| 2026-04-29 11:22 | 29.20524 | 31.67998 | 23045 ft | 459 kts | 170° |
| 2026-04-29 11:22 | 29.17440 | 31.69003 | 23441 ft | 462 kts | 170° |
| 2026-04-29 11:23 | 29.14338 | 31.70014 | 23783 ft | 466 kts | 170° |
| 2026-04-29 11:23 | 29.11210 | 31.71033 | 24109 ft | 468 kts | 170° |
| 2026-04-29 11:23 | 29.08063 | 31.72057 | 24440 ft | 471 kts | 170° |
| 2026-04-29 11:23 | 29.04909 | 31.73083 | 24745 ft | 473 kts | 170° |
| 2026-04-29 11:24 | 29.01726 | 31.74118 | 25058 ft | 476 kts | 170° |
| 2026-04-29 11:24 | 28.98529 | 31.75155 | 25369 ft | 478 kts | 170° |
| 2026-04-29 11:24 | 28.95319 | 31.76189 | 25674 ft | 481 kts | 170° |
| 2026-04-29 11:24 | 28.92080 | 31.77219 | 25976 ft | 483 kts | 170° |
| 2026-04-29 11:25 | 28.88832 | 31.78247 | 26274 ft | 485 kts | 170° |
| 2026-04-29 11:25 | 28.85611 | 31.79266 | 26564 ft | 488 kts | 170° |
| 2026-04-29 11:25 | 28.82333 | 31.80303 | 26844 ft | 490 kts | 170° |
| 2026-04-29 11:25 | 28.79037 | 31.81347 | 27169 ft | 492 kts | 170° |
| 2026-04-29 11:26 | 28.72413 | 31.83446 | 27743 ft | 495 kts | 170° |
| 2026-04-29 11:26 | 28.69099 | 31.84497 | 28136 ft | 494 kts | 170° |
| 2026-04-29 11:26 | 28.65784 | 31.85548 | 28573 ft | 493 kts | 171° |
| 2026-04-29 11:27 | 28.62489 | 31.86592 | 28977 ft | 492 kts | 171° |
| 2026-04-29 11:27 | 28.60296 | 31.87285 | 29013 ft | 495 kts | 171° |
| 2026-04-29 11:27 | 28.52566 | 31.89725 | 28990 ft | 492 kts | 171° |
| 2026-04-29 11:28 | 28.45990 | 31.91802 | 29004 ft | 491 kts | 171° |
| 2026-04-29 11:28 | 28.40508 | 31.93526 | 29008 ft | 493 kts | 171° |
| 2026-04-29 11:29 | 28.33879 | 31.95610 | 29005 ft | 495 kts | 171° |
| 2026-04-29 11:29 | 28.27226 | 31.97700 | 29004 ft | 496 kts | 171° |
| 2026-04-29 11:30 | 28.20578 | 31.99788 | 29001 ft | 495 kts | 171° |
| 2026-04-29 11:30 | 28.13945 | 32.01869 | 28997 ft | 494 kts | 171° |
| 2026-04-29 11:31 | 28.07326 | 32.03941 | 28994 ft | 492 kts | 171° |
| 2026-04-29 11:31 | 28.00779 | 32.05994 | 28998 ft | 490 kts | 171° |
| 2026-04-29 11:32 | 27.94220 | 32.08090 | 28984 ft | 489 kts | 170° |
| 2026-04-29 11:32 | 27.87682 | 32.10186 | 28995 ft | 487 kts | 171° |
| 2026-04-29 11:33 | 27.81150 | 32.12273 | 28998 ft | 487 kts | 171° |
| 2026-04-29 11:33 | 27.74632 | 32.14349 | 28996 ft | 486 kts | 171° |
| 2026-04-29 11:34 | 27.68117 | 32.16421 | 28968 ft | 487 kts | 171° |
| 2026-04-29 11:34 | 27.61668 | 32.18473 | 28966 ft | 476 kts | 171° |
| 2026-04-29 11:35 | 27.55399 | 32.20470 | 28963 ft | 465 kts | 171° |
| 2026-04-29 11:35 | 27.49137 | 32.22447 | 28987 ft | 470 kts | 171° |
| 2026-04-29 11:36 | 27.42786 | 32.24453 | 28975 ft | 474 kts | 171° |
| 2026-04-29 11:36 | 27.36469 | 32.26454 | 28963 ft | 475 kts | 171° |
| 2026-04-29 11:37 | 27.30113 | 32.28465 | 28955 ft | 472 kts | 171° |
| 2026-04-29 11:37 | 27.23814 | 32.30456 | 28951 ft | 468 kts | 171° |
| 2026-04-29 11:38 | 27.17571 | 32.32429 | 28957 ft | 465 kts | 171° |
| 2026-04-29 11:38 | 27.11352 | 32.34391 | 28950 ft | 463 kts | 171° |
| 2026-04-29 11:39 | 27.05150 | 32.36262 | 28950 ft | 457 kts | 176° |
| 2026-04-29 11:39 | 26.98903 | 32.37388 | 28948 ft | 453 kts | 179° |
| 2026-04-29 11:40 | 26.95789 | 32.37875 | 28834 ft | 448 kts | 179° |
| 2026-04-29 11:40 | 26.92720 | 32.38360 | 28444 ft | 444 kts | 179° |
| 2026-04-29 11:40 | 26.89667 | 32.38856 | 27925 ft | 443 kts | 178° |
| 2026-04-29 11:40 | 26.86615 | 32.39365 | 27363 ft | 443 kts | 179° |
| 2026-04-29 11:41 | 26.83573 | 32.39843 | 26907 ft | 440 kts | 179° |
| 2026-04-29 11:41 | 26.80555 | 32.40309 | 26514 ft | 436 kts | 179° |
| 2026-04-29 11:41 | 26.77558 | 32.40766 | 26110 ft | 433 kts | 179° |
| 2026-04-29 11:41 | 26.74583 | 32.41214 | 25691 ft | 431 kts | 179° |
| 2026-04-29 11:42 | 26.71619 | 32.41656 | 25288 ft | 428 kts | 179° |
| 2026-04-29 11:42 | 26.68675 | 32.42091 | 24876 ft | 426 kts | 179° |
| 2026-04-29 11:42 | 26.65742 | 32.42520 | 24478 ft | 424 kts | 179° |
| 2026-04-29 11:42 | 26.62821 | 32.42943 | 24089 ft | 422 kts | 179° |
| 2026-04-29 11:43 | 26.59918 | 32.43362 | 23687 ft | 420 kts | 179° |
| 2026-04-29 11:43 | 26.57023 | 32.43776 | 23265 ft | 417 kts | 179° |
| 2026-04-29 11:43 | 26.54153 | 32.44183 | 22832 ft | 415 kts | 179° |
| 2026-04-29 11:43 | 26.51330 | 32.44579 | 22419 ft | 413 kts | 179° |
| 2026-04-29 11:44 | 26.48486 | 32.44975 | 22005 ft | 410 kts | 179° |
| 2026-04-29 11:44 | 26.45662 | 32.45364 | 21585 ft | 408 kts | 179° |
| 2026-04-29 11:44 | 26.42842 | 32.45749 | 21085 ft | 409 kts | 179° |
| 2026-04-29 11:44 | 26.40020 | 32.46127 | 20607 ft | 409 kts | 179° |
| 2026-04-29 11:45 | 26.37193 | 32.46499 | 20131 ft | 409 kts | 179° |
| 2026-04-29 11:45 | 26.34367 | 32.46864 | 19668 ft | 409 kts | 179° |
| 2026-04-29 11:45 | 26.31542 | 32.47216 | 19193 ft | 409 kts | 179° |
| 2026-04-29 11:45 | 26.28706 | 32.47565 | 18748 ft | 410 kts | 179° |
| 2026-04-29 11:46 | 26.25865 | 32.47920 | 18283 ft | 411 kts | 179° |
| 2026-04-29 11:46 | 26.23029 | 32.48270 | 17768 ft | 410 kts | 179° |
| 2026-04-29 11:46 | 26.20230 | 32.48607 | 17266 ft | 408 kts | 179° |
| 2026-04-29 11:46 | 26.17408 | 32.48931 | 16764 ft | 406 kts | 179° |
| 2026-04-29 11:47 | 26.14600 | 32.49235 | 16261 ft | 402 kts | 179° |
| 2026-04-29 11:47 | 26.11838 | 32.49519 | 15760 ft | 395 kts | 179° |
| 2026-04-29 11:47 | 26.09117 | 32.49782 | 15191 ft | 391 kts | 179° |
| 2026-04-29 11:47 | 26.06422 | 32.50019 | 14592 ft | 386 kts | 179° |
| 2026-04-29 11:48 | 26.03775 | 32.50237 | 14244 ft | 375 kts | 179° |
| 2026-04-29 11:48 | 26.01235 | 32.50443 | 14143 ft | 356 kts | 179° |
| 2026-04-29 11:48 | 25.98801 | 32.50638 | 13842 ft | 347 kts | 179° |
| 2026-04-29 11:48 | 25.96413 | 32.50611 | 13256 ft | 341 kts | 192° |
| 2026-04-29 11:49 | 25.94095 | 32.50105 | 12649 ft | 339 kts | 196° |
| 2026-04-29 11:49 | 25.91804 | 32.49502 | 12074 ft | 338 kts | 197° |
| 2026-04-29 11:49 | 25.89525 | 32.48868 | 11528 ft | 337 kts | 197° |
| 2026-04-29 11:49 | 25.87232 | 32.48223 | 11022 ft | 340 kts | 197° |
| 2026-04-29 11:50 | 25.84955 | 32.47575 | 10724 ft | 337 kts | 197° |
| 2026-04-29 11:50 | 25.82685 | 32.46927 | 10341 ft | 337 kts | 197° |
| 2026-04-29 11:50 | 25.80423 | 32.46277 | 10064 ft | 333 kts | 197° |
| 2026-04-29 11:50 | 25.78190 | 32.45628 | 9715 ft | 332 kts | 197° |
| 2026-04-29 11:51 | 25.75965 | 32.44976 | 9493 ft | 325 kts | 197° |
| 2026-04-29 11:51 | 25.73831 | 32.44349 | 9382 ft | 310 kts | 197° |
| 2026-04-29 11:51 | 25.71773 | 32.43748 | 9085 ft | 303 kts | 197° |
| 2026-04-29 11:51 | 25.69735 | 32.43156 | 8657 ft | 303 kts | 197° |
| 2026-04-29 11:52 | 25.67712 | 32.42571 | 8102 ft | 306 kts | 197° |
| 2026-04-29 11:52 | 25.65649 | 32.41971 | 7572 ft | 307 kts | 197° |
| 2026-04-29 11:52 | 25.63584 | 32.41366 | 7049 ft | 307 kts | 197° |
| 2026-04-29 11:52 | 25.61520 | 32.40765 | 6538 ft | 306 kts | 196° |
| 2026-04-29 11:53 | 25.59399 | 32.40573 | 5970 ft | 309 kts | 172° |
| 2026-04-29 11:53 | 25.57394 | 32.41376 | 5491 ft | 306 kts | 146° |
| 2026-04-29 11:53 | 25.55737 | 32.42823 | 5081 ft | 301 kts | 138° |
| 2026-04-29 11:53 | 25.54184 | 32.44353 | 4648 ft | 300 kts | 136° |
| 2026-04-29 11:54 | 25.52627 | 32.45914 | 4204 ft | 298 kts | 136° |
| 2026-04-29 11:54 | 25.51097 | 32.47455 | 3734 ft | 297 kts | 136° |
| 2026-04-29 11:54 | 25.49576 | 32.48979 | 3409 ft | 291 kts | 136° |
| 2026-04-29 11:54 | 25.48339 | 32.50670 | 3203 ft | 277 kts | 114° |
| 2026-04-29 11:55 | 25.47654 | 32.52597 | 3173 ft | 265 kts | 107° |
| 2026-04-29 11:55 | 25.47065 | 32.54509 | 3129 ft | 260 kts | 105° |
| 2026-04-29 11:55 | 25.46505 | 32.56352 | 3141 ft | 245 kts | 106° |
| 2026-04-29 11:55 | 25.45973 | 32.58104 | 3154 ft | 237 kts | 102° |
| 2026-04-29 11:56 | 25.45851 | 32.59873 | 3144 ft | 228 kts | 69° |
| 2026-04-29 11:56 | 25.46586 | 32.61347 | 3194 ft | 217 kts | 38° |
| 2026-04-29 11:56 | 25.47792 | 32.62331 | 3180 ft | 219 kts | 30° |
| 2026-04-29 11:56 | 25.49050 | 32.63244 | 3124 ft | 207 kts | 24° |
| 2026-04-29 11:57 | 25.50381 | 32.63774 | 3155 ft | 205 kts | 12° |
| 2026-04-29 11:57 | 25.51746 | 32.64236 | 3132 ft | 204 kts | 13° |
| 2026-04-29 11:57 | 25.53083 | 32.64684 | 2953 ft | 201 kts | 13° |
| 2026-04-29 11:57 | 25.54387 | 32.65128 | 2754 ft | 192 kts | 13° |
| 2026-04-29 11:58 | 25.55653 | 32.65570 | 2465 ft | 189 kts | 14° |
| 2026-04-29 11:58 | 25.56874 | 32.65994 | 2214 ft | 179 kts | 14° |
| 2026-04-29 11:58 | 25.58008 | 32.66429 | 2004 ft | 167 kts | 18° |
| 2026-04-29 11:58 | 25.59043 | 32.66916 | 1791 ft | 157 kts | 18° |
| 2026-04-29 11:59 | 25.60005 | 32.67365 | 1566 ft | 147 kts | 16° |
| 2026-04-29 11:59 | 25.60923 | 32.67792 | 1401 ft | 146 kts | 19° |
| 2026-04-29 11:59 | 25.61973 | 32.68289 | 1402 ft | 175 kts | 19° |
| 2026-04-29 11:59 | 25.63109 | 32.68848 | 1051 ft | 183 kts | 19° |
| 2026-04-29 12:00 | 25.64249 | 32.69352 | 806 ft | 169 kts | 16° |
| 2026-04-29 12:00 | 25.65325 | 32.69826 | 467 ft | 163 kts | 20° |
| 2026-04-29 12:00 | 25.66337 | 32.70299 | 304 ft | 152 kts | 18° |
| 2026-04-29 12:00 | 25.67248 | 32.70709 | 286 ft | 125 kts | 22° |
| 2026-04-29 12:01 | 25.67688 | 32.70915 | 285 ft | 18 kts | 22° |
| 2026-04-29 12:01 | 25.67777 | 32.70906 | 285 ft | 3 kts | 301° |
| 2026-04-29 12:01 | 25.67787 | 32.70882 | 284 ft | 4 kts | 295° |
| 2026-04-29 12:01 | 25.67799 | 32.70855 | 284 ft | 4 kts | 295° |
| 2026-04-29 12:02 | 25.67809 | 32.70826 | 284 ft | 4 kts | 283° |
| 2026-04-29 12:02 | 25.67788 | 32.70787 | 285 ft | 10 kts | 217° |
| 2026-04-29 12:02 | 25.67711 | 32.70747 | 290 ft | 13 kts | 203° |
| 2026-04-29 12:02 | 25.67629 | 32.70708 | 288 ft | 13 kts | 200° |
| 2026-04-29 12:03 | 25.67547 | 32.70672 | 286 ft | 12 kts | 202° |
| 2026-04-29 12:03 | 25.67472 | 32.70631 | 290 ft | 12 kts | 225° |
| 2026-04-29 12:03 | 25.67482 | 32.70547 | 286 ft | 12 kts | 297° |
| 2026-04-29 12:03 | 25.67517 | 32.70466 | 289 ft | 12 kts | 296° |
| 2026-04-29 12:04 | 25.67521 | 32.70385 | 290 ft | 11 kts | 229° |
| 2026-04-29 12:04 | 25.67452 | 32.70347 | 287 ft | 11 kts | 206° |
| 2026-04-29 12:04 | 25.67443 | 32.70280 | 290 ft | 11 kts | 298° |
| 2026-04-29 12:04 | 25.67468 | 32.70220 | 287 ft | 6 kts | 295° |
| 2026-04-29 12:05 | 25.67478 | 32.70196 | 287 ft | 0 kts | 294° |